createdAt,value
2022-12-25T00:29:03.050Z,9.6
2022-12-25T00:58:22.409Z,9.4
2022-12-25T01:27:27.757Z,9.3
2022-12-25T01:56:37.064Z,9.2
2022-12-25T02:25:49.299Z,9.4
2022-12-25T02:55:02.554Z,9.5
2022-12-25T03:24:19.006Z,9.6
2022-12-25T03:53:34.478Z,9.6
2022-12-25T04:22:54.568Z,9.7
2022-12-25T04:52:10.982Z,9.6
2022-12-25T05:21:27.564Z,9
2022-12-25T05:50:48.706Z,9.3
2022-12-25T06:20:03.938Z,9.5
2022-12-25T06:49:26.308Z,9.4
2022-12-25T07:18:46.235Z,9.3
2022-12-25T07:48:17.178Z,9.2
2022-12-25T08:16:59.020Z,9.1
2022-12-25T08:46:11.471Z,9.3
2022-12-25T09:15:24.103Z,9.6
2022-12-25T09:44:39.399Z,10.1
2022-12-25T10:13:53.311Z,10.8
2022-12-25T10:43:08.476Z,11
2022-12-25T11:12:24.554Z,11.3
2022-12-25T11:41:45.165Z,12.2
2022-12-25T12:11:04.177Z,13.9
2022-12-25T12:39:51.603Z,14.2
2022-12-25T13:09:19.502Z,15.6
2022-12-25T13:38:39.814Z,15.1
2022-12-25T14:07:56.785Z,14
2022-12-25T14:37:19.223Z,13.2
2022-12-25T15:06:33.962Z,12.6
2022-12-25T15:35:41.067Z,12.6
2022-12-25T16:04:54.502Z,13.2
2022-12-25T16:34:19.276Z,13.5
2022-12-25T17:03:41.495Z,13.5
2022-12-25T17:32:55.277Z,13.5
2022-12-25T18:02:20.043Z,13.4
2022-12-25T18:31:29.700Z,13.1
2022-12-25T19:00:45.337Z,12.8
2022-12-25T19:30:03.865Z,12.7
2022-12-25T19:59:25.137Z,13.1
2022-12-25T20:28:44.975Z,12.6
2022-12-25T20:58:06.801Z,12
2022-12-25T21:27:15.292Z,11.6
2022-12-25T21:56:27.764Z,11.3
2022-12-25T22:25:30.493Z,11.1
2022-12-25T22:54:46.536Z,11.1
2022-12-25T23:24:05.314Z,11.3
2022-12-25T23:53:08.875Z,11.4
